createdAt,value
2022-10-15T00:04:20.345Z,14.76
2022-10-15T00:09:24.146Z,14.73
2022-10-15T00:14:30.246Z,14.18
2022-10-15T00:19:34.208Z,14.14
2022-10-15T00:24:38.058Z,14.29
2022-10-15T00:29:43.527Z,14.74
2022-10-15T00:34:47.661Z,13.75
2022-10-15T00:39:51.835Z,14.48
2022-10-15T00:44:59.909Z,14.33
2022-10-15T00:50:07.528Z,14.01
2022-10-15T00:55:15.317Z,14.17
2022-10-15T01:00:21.910Z,14.50
2022-10-15T01:05:25.942Z,14.09
2022-10-15T01:10:37.577Z,14.57
2022-10-15T01:15:49.942Z,13.98
2022-10-15T01:21:12.576Z,13.52
2022-10-15T01:26:46.220Z,13.97
2022-10-15T01:32:04.030Z,13.99
2022-10-15T01:37:12.987Z,13.75
2022-10-15T01:42:24.745Z,13.56
2022-10-15T01:47:37.015Z,13.68
2022-10-15T01:52:43.336Z,13.71
2022-10-15T01:57:48.763Z,13.57
2022-10-15T02:02:54.270Z,12.72
2022-10-15T02:08:07.315Z,12.97
2022-10-15T02:13:31.209Z,12.96
2022-10-15T02:18:42.552Z,14.14
2022-10-15T02:23:52.942Z,13.88
2022-10-15T02:29:02.955Z,13.79
2022-10-15T02:34:12.059Z,13.31
2022-10-15T02:39:20.324Z,12.90
2022-10-15T02:44:24.122Z,12.96
2022-10-15T02:49:29.355Z,13.14
2022-10-15T02:54:33.291Z,13.27
2022-10-15T02:59:38.155Z,13.18
2022-10-15T03:04:43.692Z,13.14
2022-10-15T03:09:51.518Z,12.80
2022-10-15T03:14:55.611Z,12.78
2022-10-15T03:20:01.067Z,12.40
2022-10-15T03:25:07.055Z,12.90
2022-10-15T03:30:12.154Z,13.20
2022-10-15T03:35:17.559Z,13.29
2022-10-15T03:40:21.951Z,13.15
2022-10-15T03:45:30.642Z,13.21
2022-10-15T03:50:52.568Z,13.37
2022-10-15T03:56:05.496Z,13.12
2022-10-15T04:01:11.758Z,13.22
2022-10-15T04:06:17.198Z,13.19
2022-10-15T04:11:22.586Z,13.38
2022-10-15T04:16:36.189Z,14.00
2022-10-15T04:21:50.222Z,13.34
2022-10-15T04:27:07.634Z,13.32
2022-10-15T04:32:14.262Z,13.55
2022-10-15T04:37:20.563Z,13.34
2022-10-15T04:42:24.640Z,13.80
2022-10-15T04:47:29.007Z,13.55
2022-10-15T04:52:45.035Z,14.01
2022-10-15T04:57:50.644Z,13.90
2022-10-15T05:03:01.263Z,13.80
2022-10-15T05:08:20.442Z,13.73
2022-10-15T05:13:45.966Z,13.79
2022-10-15T05:18:51.828Z,12.64
2022-10-15T05:23:57.174Z,12.99
2022-10-15T05:29:21.403Z,13.40
2022-10-15T05:34:26.957Z,13.49
2022-10-15T05:39:37.641Z,13.96
2022-10-15T05:44:41.758Z,14.94
2022-10-15T05:49:45.616Z,14.59
2022-10-15T05:54:55.727Z,15.10
2022-10-15T05:59:59.914Z,16.00
2022-10-15T06:05:05.069Z,15.34
2022-10-15T06:10:10.590Z,15.30
2022-10-15T06:15:15.252Z,15.04
2022-10-15T06:20:22.232Z,15.24
2022-10-15T06:25:27.604Z,15.48
2022-10-15T06:30:31.674Z,15.31
2022-10-15T06:35:36.624Z,15.72
2022-10-15T06:40:42.198Z,15.96
2022-10-15T06:45:46.115Z,16.32
2022-10-15T06:50:54.248Z,16.71
2022-10-15T06:56:00.143Z,16.59
2022-10-15T07:01:05.205Z,16.52
2022-10-15T07:06:10.625Z,16.81
2022-10-15T07:11:15.874Z,16.47
2022-10-15T07:16:19.651Z,16.88
2022-10-15T07:21:23.589Z,17.66
2022-10-15T07:26:29.332Z,17.34
2022-10-15T07:31:35.350Z,17.10
2022-10-15T07:36:39.513Z,17.56
2022-10-15T07:41:45.716Z,17.54
2022-10-15T07:46:49.506Z,17.97
2022-10-15T07:51:53.283Z,17.13
2022-10-15T07:56:58.316Z,17.85
2022-10-15T08:02:02.887Z,18.13
2022-10-15T08:07:09.518Z,17.32
2022-10-15T08:12:15.919Z,18.46
2022-10-15T08:17:20.163Z,18.49
2022-10-15T08:22:26.839Z,18.58
2022-10-15T08:27:34.360Z,18.83
2022-10-15T08:32:41.178Z,18.34
2022-10-15T08:37:44.923Z,19.02
2022-10-15T08:42:51.106Z,18.98
2022-10-15T08:47:59.777Z,19.92
2022-10-15T08:53:03.862Z,19.56
2022-10-15T08:58:16.242Z,19.56
2022-10-15T09:03:37.810Z,19.44
2022-10-15T09:08:51.720Z,19.51
2022-10-15T09:13:57.160Z,19.32
2022-10-15T09:19:05.876Z,19.61
2022-10-15T09:24:13.696Z,19.89
2022-10-15T09:29:26.196Z,19.59
2022-10-15T09:34:39.944Z,19.72
2022-10-15T09:39:57.929Z,18.96
2022-10-15T09:45:07.237Z,19.42
2022-10-15T09:50:13.888Z,19.61
2022-10-15T09:55:33.051Z,19.93
2022-10-15T10:00:56.693Z,20.48
2022-10-15T10:06:04.930Z,19.73
2022-10-15T10:11:13.909Z,20.25
2022-10-15T10:16:21.154Z,20.96
2022-10-15T10:21:27.152Z,20.32
2022-10-15T10:26:36.377Z,20.79
2022-10-15T10:31:43.874Z,21.12
2022-10-15T10:36:58.149Z,21.07
2022-10-15T10:42:05.202Z,21.01
2022-10-15T10:47:17.707Z,21.24
2022-10-15T10:52:27.030Z,21.45
2022-10-15T10:57:43.383Z,21.97
2022-10-15T11:02:48.871Z,21.71
2022-10-15T11:08:01.642Z,20.46
2022-10-15T11:13:21.571Z,20.95
2022-10-15T11:18:50.708Z,20.44
2022-10-15T11:24:10.665Z,20.70
2022-10-15T11:29:25.685Z,20.28
2022-10-15T11:34:46.013Z,20.53
2022-10-15T11:40:13.704Z,20.74
2022-10-15T11:45:36.168Z,23.17
2022-10-15T11:50:51.328Z,22.90
2022-10-15T11:56:01.748Z,23.85
2022-10-15T12:01:14.129Z,22.84
2022-10-15T12:06:23.006Z,22.77
2022-10-15T12:11:39.755Z,23.15
2022-10-15T12:16:53.795Z,23.15
2022-10-15T12:22:13.653Z,23.36
2022-10-15T12:27:22.964Z,22.75
2022-10-15T12:32:29.975Z,22.91
2022-10-15T12:37:37.123Z,23.61
2022-10-15T12:42:41.821Z,23.90
2022-10-15T12:47:50.304Z,23.24
2022-10-15T12:53:01.773Z,22.69
2022-10-15T12:58:27.420Z,24.38
2022-10-15T13:03:36.457Z,24.77
2022-10-15T13:08:45.778Z,24.59
2022-10-15T13:13:52.072Z,23.37
2022-10-15T13:18:57.394Z,21.28
2022-10-15T13:24:04.793Z,21.26
2022-10-15T13:29:17.271Z,21.36
2022-10-15T13:34:27.477Z,21.43
2022-10-15T13:47:04.872Z,22.45
2022-10-15T13:52:11.678Z,22.97
2022-10-15T13:57:18.602Z,22.21
2022-10-15T14:02:24.630Z,20.12
2022-10-15T14:07:28.940Z,19.41
2022-10-15T14:12:33.535Z,19.06
2022-10-15T14:17:39.254Z,19.30
2022-10-15T14:22:43.301Z,19.23
2022-10-15T14:27:47.507Z,20.16
2022-10-15T14:32:52.984Z,19.92
2022-10-15T14:38:01.702Z,19.82
2022-10-15T14:43:07.848Z,19.78
2022-10-15T14:48:19.778Z,19.60
2022-10-15T14:53:28.522Z,19.89
2022-10-15T14:58:32.646Z,19.65
2022-10-15T15:03:42.730Z,19.13
2022-10-15T15:08:46.903Z,19.32
2022-10-15T15:13:52.392Z,19.04
2022-10-15T15:18:58.497Z,19.12
2022-10-15T15:24:02.598Z,18.99
2022-10-15T15:34:30.884Z,18.52
2022-10-15T15:39:34.840Z,18.23
2022-10-15T15:44:38.734Z,18.05
2022-10-15T15:49:44.182Z,17.03
2022-10-15T15:54:48.350Z,16.76
2022-10-15T15:59:52.333Z,16.41
2022-10-15T16:04:57.815Z,17.19
2022-10-15T16:10:02.027Z,17.54
2022-10-15T16:15:07.916Z,17.63
2022-10-15T16:20:15.799Z,18.18
2022-10-15T16:25:20.676Z,18.16
2022-10-15T16:30:24.783Z,17.77
2022-10-15T16:35:30.235Z,17.95
2022-10-15T16:40:34.786Z,17.94
2022-10-15T16:45:39.250Z,17.54
2022-10-15T16:50:44.722Z,17.80
2022-10-15T16:55:48.750Z,17.72
2022-10-15T17:00:52.932Z,17.54
2022-10-15T17:05:59.585Z,17.22
2022-10-15T17:11:03.907Z,17.10
2022-10-15T17:16:15.876Z,16.78
2022-10-15T17:21:23.331Z,17.25
2022-10-15T17:26:33.904Z,16.57
2022-10-15T17:31:39.956Z,16.50
2022-10-15T17:36:47.760Z,16.60
2022-10-15T17:41:52.989Z,16.51
2022-10-15T17:46:57.002Z,15.73
2022-10-15T17:52:10.308Z,15.40
2022-10-15T17:57:14.454Z,15.77
2022-10-15T18:02:18.483Z,16.22
2022-10-15T18:07:24.683Z,16.00
2022-10-15T18:12:29.011Z,16.40
2022-10-15T18:17:33.028Z,16.29
2022-10-15T18:22:38.491Z,16.67
2022-10-15T18:27:42.766Z,16.62
2022-10-15T18:32:46.749Z,16.41
2022-10-15T18:37:54.671Z,16.42
2022-10-15T18:42:59.113Z,16.98
2022-10-15T18:48:07.045Z,16.64
2022-10-15T18:53:12.827Z,16.71
2022-10-15T18:58:16.511Z,16.94
2022-10-15T19:03:20.524Z,16.45
2022-10-15T19:08:26.411Z,16.09
2022-10-15T19:13:30.758Z,16.24
2022-10-15T19:18:36.972Z,16.42
2022-10-15T19:23:42.694Z,16.30
2022-10-15T19:28:47.303Z,16.25
2022-10-15T19:33:51.405Z,16.06
2022-10-15T19:38:58.124Z,16.00
2022-10-15T19:44:08.039Z,15.68
2022-10-15T19:49:13.700Z,16.04
2022-10-15T19:54:18.975Z,15.79
2022-10-15T19:59:23.350Z,15.85
2022-10-15T20:04:29.481Z,15.77
2022-10-15T20:09:34.963Z,15.70
2022-10-15T20:14:38.890Z,16.41
2022-10-15T20:19:42.856Z,16.20
2022-10-15T20:24:48.103Z,16.37
2022-10-15T20:29:52.118Z,15.95
2022-10-15T20:34:56.201Z,15.72
2022-10-15T20:40:01.571Z,15.41
2022-10-15T20:45:06.219Z,15.07
2022-10-15T20:50:15.321Z,15.07
2022-10-15T20:55:21.178Z,15.27
2022-10-15T21:00:24.844Z,14.94
2022-10-15T21:05:29.449Z,14.79
2022-10-15T21:10:34.805Z,14.69
2022-10-15T21:15:38.795Z,15.00
2022-10-15T21:20:42.672Z,15.12
2022-10-15T21:25:48.535Z,15.10
2022-10-15T21:30:52.472Z,15.16
2022-10-15T21:35:56.345Z,14.84
2022-10-15T21:41:01.763Z,15.48
2022-10-15T21:46:07.237Z,15.12
2022-10-15T21:51:13.265Z,15.28
2022-10-15T21:56:20.036Z,15.23
2022-10-15T22:01:25.669Z,15.35
2022-10-15T22:06:29.955Z,14.74
2022-10-15T22:11:38.789Z,14.99
2022-10-15T22:16:46.319Z,14.51
2022-10-15T22:21:50.333Z,14.31
2022-10-15T22:26:55.693Z,14.92
2022-10-15T22:31:59.674Z,14.91
2022-10-15T22:37:03.681Z,15.36
2022-10-15T22:42:09.579Z,14.45
2022-10-15T22:47:13.629Z,14.46
2022-10-15T22:52:20.133Z,13.92
2022-10-15T22:57:25.476Z,14.18
2022-10-15T23:02:29.329Z,14.26
2022-10-15T23:07:33.205Z,14.22
2022-10-15T23:12:40.150Z,13.99
2022-10-15T23:17:43.994Z,14.54
2022-10-15T23:22:47.963Z,14.44
2022-10-15T23:27:53.205Z,14.19
2022-10-15T23:32:57.240Z,13.98
2022-10-15T23:38:01.105Z,14.70
2022-10-15T23:43:06.651Z,14.03
2022-10-15T23:48:10.558Z,13.74
2022-10-15T23:53:14.509Z,13.47
2022-10-15T23:58:20.205Z,13.81
